Time;durP1;ratioP1;P1;durP2;ratioP2;P2;SDS_P1;SDS_P2;PMS_P1;PMS_P2;Temp;Humidity;BMP_temperature;BMP_pressure;BME280_temperature;BME280_humidity;BME280_pressure;Samples;Min_cycle;Max_cycle;Signal;HPM_P1;HPM_P2
2022/10/10 00:00:30;;;;;;;;;;;16.20;56.70;;;;;;5087624;28;19967;-72
2022/10/10 00:02:56;;;;;;;;;;;16.20;56.70;;;;;;5087349;28;19979;-72
2022/10/10 00:05:22;;;;;;;;;;;16.20;56.70;;;;;;5087872;28;20409;-72
2022/10/10 00:07:47;;;;;;;;;;;16.20;56.70;;;;;;5087715;28;20386;-72
2022/10/10 00:10:13;;;;;;;;;;;16.20;56.70;;;;;;5087405;28;19920;-72
2022/10/10 00:12:38;;;;;;;;;;;16.20;56.70;;;;;;5087398;28;19924;-72
2022/10/10 00:15:04;;;;;;;;;;;16.10;56.60;;;;;;5077510;28;19921;-80
2022/10/10 00:17:30;;;;;;;;;;;16.10;56.60;;;;;;5074111;28;20012;-72
2022/10/10 00:19:55;;;;;;;;;;;16.20;56.70;;;;;;5073677;28;20350;-72
2022/10/10 00:22:21;;;;;;;;;;;16.20;56.70;;;;;;5074934;28;19925;-72
2022/10/10 00:24:46;;;;;;;;;;;16.10;56.70;;;;;;5073608;28;19924;-72
2022/10/10 00:27:12;;;;;;;;;;;16.10;56.60;;;;;;5074954;28;19921;-72
2022/10/10 00:29:37;;;;;;;;;;;16.10;56.70;;;;;;5073695;28;20391;-72
2022/10/10 00:32:03;;;;;;;;;;;16.10;56.70;;;;;;5073542;28;20295;-72
2022/10/10 00:34:28;;;;;;;;;;;16.10;56.70;;;;;;5074694;28;19920;-72
2022/10/10 00:36:54;;;;;;;;;;;16.10;56.60;;;;;;5073813;28;19947;-80
2022/10/10 00:39:19;;;;;;;;;;;16.10;56.70;;;;;;5073641;28;20280;-72
2022/10/10 00:41:45;;;;;;;;;;;16.10;56.70;;;;;;5073621;28;20284;-72
2022/10/10 00:44:12;;;;;;;;;;;16.10;56.70;;;;;;5090020;28;20288;-72
2022/10/10 00:46:38;;;;;;;;;;;16.10;56.60;;;;;;5073322;28;19960;-72
2022/10/10 00:49:09;;;;;;;;;;;16.10;56.60;;;;;;5073207;28;20017;-80
2022/10/10 00:51:34;;;;;;;;;;;16.10;56.60;;;;;;5074913;28;20018;-72
2022/10/10 00:54:01;;;;;;;;;;;16.10;56.60;;;;;;5073110;28;20455;-72
2022/10/10 00:56:29;;;;;;;;;;;16.10;56.60;;;;;;5073028;28;20021;-72
2022/10/10 00:58:56;;;;;;;;;;;16.10;56.60;;;;;;5073058;28;20376;-72
2022/10/10 01:01:22;;;;;;;;;;;16.10;56.60;;;;;;5072976;28;19924;-81
2022/10/10 01:03:47;;;;;;;;;;;16.10;56.50;;;;;;5089374;28;19974;-72
2022/10/10 01:06:13;;;;;;;;;;;16.10;56.50;;;;;;5073142;28;20011;-72
2022/10/10 01:08:39;;;;;;;;;;;16.00;56.50;;;;;;5090074;28;19920;-72
2022/10/10 01:13:57;;;;;;;;;;;16.10;56.50;;;;;;5110343;27;19912;-72
2022/10/10 01:16:28;;;;;;;;;;;16.10;56.50;;;;;;5109225;28;20148;-72
2022/10/10 01:21:40;;;;;;;;;;;16.10;56.50;;;;;;5110259;27;19912;-72
2022/10/10 01:24:26;;;;;;;;;;;16.00;56.40;;;;;;5143155;27;19928;-72
2022/10/10 01:27:11;;;;;;;;;;;16.10;56.50;;;;;;5108488;28;20019;-71
2022/10/10 01:29:38;;;;;;;;;;;16.10;56.50;;;;;;5108684;28;19920;-72
2022/10/10 01:32:08;;;;;;;;;;;16.10;56.40;;;;;;5143429;27;19969;-72
2022/10/10 01:34:47;;;;;;;;;;;16.00;56.40;;;;;;5143092;27;19927;-72
2022/10/10 01:39:59;;;;;;;;;;;16.00;56.40;;;;;;5110278;27;19913;-72
2022/10/10 01:42:41;;;;;;;;;;;16.10;56.40;;;;;;5108884;28;19928;-72
2022/10/10 01:45:07;;;;;;;;;;;16.00;56.40;;;;;;5108730;28;19926;-72
2022/10/10 01:47:33;;;;;;;;;;;16.00;56.40;;;;;;5108818;28;19920;-72
2022/10/10 01:50:00;;;;;;;;;;;16.00;56.30;;;;;;5109077;28;19924;-79
2022/10/10 01:57:56;;;;;;;;;;;16.00;56.30;;;;;;5089785;28;20368;-72
2022/10/10 02:00:22;;;;;;;;;;;16.00;56.30;;;;;;5088647;28;19924;-72
2022/10/10 02:05:35;;;;;;;;;;;15.90;56.20;;;;;;5110323;27;19944;-72
2022/10/10 02:08:06;;;;;;;;;;;16.00;56.30;;;;;;5143217;27;19919;-72
2022/10/10 02:10:34;;;;;;;;;;;16.00;56.30;;;;;;5143585;27;20340;-72
2022/10/10 02:13:00;;;;;;;;;;;16.00;56.30;;;;;;5109146;28;19924;-72
2022/10/10 02:15:28;;;;;;;;;;;16.00;56.30;;;;;;5108855;28;20010;-72
2022/10/10 02:17:55;;;;;;;;;;;16.00;56.20;;;;;;5109136;28;19920;-80
2022/10/10 02:20:22;;;;;;;;;;;16.00;56.30;;;;;;5109020;28;20126;-80
2022/10/10 02:22:49;;;;;;;;;;;16.00;56.30;;;;;;5143295;27;20448;-72
2022/10/10 02:25:15;;;;;;;;;;;16.00;56.20;;;;;;5108834;28;20169;-72
2022/10/10 02:27:43;;;;;;;;;;;16.00;56.20;;;;;;5109024;28;19942;-72
2022/10/10 02:30:09;;;;;;;;;;;16.00;56.20;;;;;;5108645;28;19960;-72
2022/10/10 02:32:41;;;;;;;;;;;16.00;56.20;;;;;;5109821;28;19966;-72
2022/10/10 02:35:08;;;;;;;;;;;15.90;56.20;;;;;;5109853;28;20287;-72
2022/10/10 02:37:35;;;;;;;;;;;16.00;56.20;;;;;;5108294;28;19920;-72
2022/10/10 02:40:03;;;;;;;;;;;15.90;56.10;;;;;;5109716;28;19927;-72
2022/10/10 02:42:29;;;;;;;;;;;15.90;56.20;;;;;;5108649;28;20191;-72
2022/10/10 02:44:55;;;;;;;;;;;16.00;56.20;;;;;;5108202;28;20585;-72
2022/10/10 02:47:20;;;;;;;;;;;15.90;56.20;;;;;;5108248;28;19920;-80
2022/10/10 02:49:46;;;;;;;;;;;16.00;56.20;;;;;;5142475;27;19920;-72
2022/10/10 02:52:13;;;;;;;;;;;15.90;56.10;;;;;;5108141;28;19920;-72
2022/10/10 02:54:39;;;;;;;;;;;15.90;56.10;;;;;;5107953;28;19928;-72
2022/10/10 02:57:05;;;;;;;;;;;15.90;56.10;;;;;;5108367;28;20012;-72
2022/10/10 02:59:30;;;;;;;;;;;15.90;56.10;;;;;;5109389;28;20022;-80
2022/10/10 03:01:56;;;;;;;;;;;15.90;56.10;;;;;;5108262;28;19920;-72
2022/10/10 03:04:22;;;;;;;;;;;15.90;56.10;;;;;;5141822;27;19928;-72
2022/10/10 03:06:47;;;;;;;;;;;15.90;56.90;;;;;;5109076;28;19920;-72
2022/10/10 03:09:13;;;;;;;;;;;15.90;56.10;;;;;;5108961;28;19923;-72
2022/10/10 03:11:38;;;;;;;;;;;15.90;56.10;;;;;;5108114;28;20023;-72
2022/10/10 03:14:04;;;;;;;;;;;15.90;56.10;;;;;;5141992;27;19926;-80
2022/10/10 03:16:29;;;;;;;;;;;15.90;56.10;;;;;;5096114;28;19931;-80
2022/10/10 03:18:55;;;;;;;;;;;15.90;56.10;;;;;;5094293;28;20401;-72
2022/10/10 03:21:20;;;;;;;;;;;15.90;56.10;;;;;;5095303;28;20031;-80
2022/10/10 03:23:46;;;;;;;;;;;15.90;56.10;;;;;;5093826;28;19931;-79
2022/10/10 03:26:12;;;;;;;;;;;15.90;56.10;;;;;;5127970;27;19959;-72
2022/10/10 03:28:37;;;;;;;;;;;15.90;56.10;;;;;;5094239;28;19920;-72
2022/10/10 03:31:03;;;;;;;;;;;15.90;56.10;;;;;;5095037;28;19927;-72
2022/10/10 03:33:28;;;;;;;;;;;15.90;56.10;;;;;;5127903;27;19943;-72
2022/10/10 03:35:54;;;;;;;;;;;16.00;56.10;;;;;;5094969;28;19942;-72
2022/10/10 03:38:20;;;;;;;;;;;15.90;56.10;;;;;;5093664;28;19963;-72
2022/10/10 03:40:45;;;;;;;;;;;15.90;56.10;;;;;;5093766;28;20022;-72
2022/10/10 03:43:11;;;;;;;;;;;15.80;56.00;;;;;;5093488;28;20383;-72
2022/10/10 03:45:37;;;;;;;;;;;15.90;56.10;;;;;;5093747;28;19926;-73
2022/10/10 03:48:03;;;;;;;;;;;15.90;56.10;;;;;;5093727;28;19920;-72
2022/10/10 03:50:29;;;;;;;;;;;15.90;56.10;;;;;;5093397;28;19931;-72
2022/10/10 03:52:55;;;;;;;;;;;15.90;56.00;;;;;;5093693;28;19920;-72
2022/10/10 03:55:20;;;;;;;;;;;15.80;56.00;;;;;;5127296;27;20326;-72
2022/10/10 03:57:46;;;;;;;;;;;15.90;56.00;;;;;;5076419;28;19926;-72
2022/10/10 04:00:12;;;;;;;;;;;15.90;56.00;;;;;;5094466;28;20027;-72
2022/10/10 04:02:37;;;;;;;;;;;15.90;56.10;;;;;;5093371;28;20549;-73
2022/10/10 04:05:03;;;;;;;;;;;15.80;56.00;;;;;;5111821;28;19924;-72
2022/10/10 04:07:29;;;;;;;;;;;15.80;56.00;;;;;;5114659;28;19926;-72
2022/10/10 04:09:55;;;;;;;;;;;15.90;56.00;;;;;;5096308;28;19920;-79
2022/10/10 04:12:20;;;;;;;;;;;15.90;56.00;;;;;;5096323;28;19969;-80
2022/10/10 04:14:46;;;;;;;;;;;15.90;56.00;;;;;;5096333;28;19998;-72
2022/10/10 04:17:11;;;;;;;;;;;15.80;55.90;;;;;;5096179;28;20002;-72
2022/10/10 04:19:37;;;;;;;;;;;15.80;55.90;;;;;;5096262;28;19920;-79
2022/10/10 04:22:02;;;;;;;;;;;15.80;55.90;;;;;;5114447;28;19927;-73
2022/10/10 04:24:28;;;;;;;;;;;15.80;55.90;;;;;;5096151;28;20036;-72
2022/10/10 04:26:54;;;;;;;;;;;15.80;55.90;;;;;;5094989;28;20540;-74
2022/10/10 04:29:19;;;;;;;;;;;15.80;55.90;;;;;;5096026;28;19972;-72
2022/10/10 04:31:45;;;;;;;;;;;15.80;55.90;;;;;;5096001;28;20017;-79
2022/10/10 04:34:10;;;;;;;;;;;15.80;55.90;;;;;;5095922;28;20226;-72
2022/10/10 04:36:36;;;;;;;;;;;15.80;55.90;;;;;;5095828;28;19920;-80
2022/10/10 04:39:01;;;;;;;;;;;15.80;55.90;;;;;;5114154;28;19923;-73
2022/10/10 04:41:27;;;;;;;;;;;15.80;55.90;;;;;;5095735;28;19919;-72
2022/10/10 04:43:52;;;;;;;;;;;15.80;55.90;;;;;;5095540;28;19923;-72
2022/10/10 04:46:18;;;;;;;;;;;15.80;55.90;;;;;;5096088;28;19919;-80
2022/10/10 04:48:43;;;;;;;;;;;15.80;55.90;;;;;;5113899;28;20286;-73
2022/10/10 04:51:09;;;;;;;;;;;15.80;55.90;;;;;;5095955;28;20281;-72
2022/10/10 04:53:34;;;;;;;;;;;15.80;55.90;;;;;;5095769;28;20359;-72
2022/10/10 04:56:00;;;;;;;;;;;15.80;55.90;;;;;;5095522;28;20344;-75
2022/10/10 04:58:26;;;;;;;;;;;15.70;55.80;;;;;;5095417;28;19920;-79
2022/10/10 05:00:52;;;;;;;;;;;15.80;55.90;;;;;;5130086;27;19919;-80
2022/10/10 05:03:17;;;;;;;;;;;15.70;55.80;;;;;;5129251;27;20283;-72
2022/10/10 05:05:43;;;;;;;;;;;15.80;55.90;;;;;;5113674;28;19919;-72
2022/10/10 05:08:08;;;;;;;;;;;15.70;55.80;;;;;;5095132;28;20462;-72
2022/10/10 05:10:36;;;;;;;;;;;15.70;55.80;;;;;;5095602;28;19920;-72
2022/10/10 05:13:02;;;;;;;;;;;15.80;55.90;;;;;;5095064;28;19920;-73
2022/10/10 05:15:27;;;;;;;;;;;15.70;55.80;;;;;;5095583;28;19920;-73
2022/10/10 05:17:53;;;;;;;;;;;15.70;55.80;;;;;;5113325;28;20394;-72
2022/10/10 05:20:18;;;;;;;;;;;15.80;55.80;;;;;;5095144;28;19920;-72
2022/10/10 05:22:44;;;;;;;;;;;15.70;55.80;;;;;;5095083;28;19927;-72
2022/10/10 05:25:09;;;;;;;;;;;15.70;55.80;;;;;;5112557;28;19939;-70
2022/10/10 05:27:35;;;;;;;;;;;15.70;55.80;;;;;;5094450;28;20430;-69
2022/10/10 05:30:00;;;;;;;;;;;15.70;55.90;;;;;;5095138;28;19962;-69
2022/10/10 05:32:26;;;;;;;;;;;15.70;55.80;;;;;;5110671;28;19959;-71
2022/10/10 05:34:51;;;;;;;;;;;15.70;56.10;;;;;;5120526;27;19967;-73
2022/10/10 05:37:17;;;;;;;;;;;15.70;56.10;;;;;;5091665;28;20412;-73
2022/10/10 05:39:42;;;;;;;;;;;15.70;56.40;;;;;;5112228;28;20180;-74
2022/10/10 05:42:09;;;;;;;;;;;15.80;56.40;;;;;;5111157;28;19927;-70
2022/10/10 05:44:34;;;;;;;;;;;15.70;56.60;;;;;;5091819;28;20014;-71
2022/10/10 05:47:00;;;;;;;;;;;15.80;56.70;;;;;;5104177;28;20049;-74
2022/10/10 05:49:26;;;;;;;;;;;15.80;56.80;;;;;;5090295;28;20377;-70
2022/10/10 05:51:51;;;;;;;;;;;15.80;56.80;;;;;;5089347;28;19927;-72
2022/10/10 05:54:17;;;;;;;;;;;15.80;56.70;;;;;;5108956;28;19919;-70
2022/10/10 05:56:42;;;;;;;;;;;15.80;56.70;;;;;;5090754;28;20388;-71
2022/10/10 05:59:08;;;;;;;;;;;15.90;56.60;;;;;;5087973;28;19919;-71
2022/10/10 06:01:35;;;;;;;;;;;16.00;56.50;;;;;;5088628;28;19923;-66
2022/10/10 06:04:01;;;;;;;;;;;16.00;56.40;;;;;;5083132;28;19975;-67
2022/10/10 06:06:26;;;;;;;;;;;16.10;56.50;;;;;;5082606;28;20010;-72
2022/10/10 06:08:52;;;;;;;;;;;16.20;56.50;;;;;;5083331;28;20016;-72
2022/10/10 06:11:19;;;;;;;;;;;16.30;56.30;;;;;;5101782;28;19958;-71
2022/10/10 06:13:48;;;;;;;;;;;16.40;56.00;;;;;;5083939;28;20456;-72
2022/10/10 06:16:14;;;;;;;;;;;16.50;55.90;;;;;;5090527;28;19935;-71
2022/10/10 06:18:39;;;;;;;;;;;16.60;55.80;;;;;;5104196;28;20306;-71
2022/10/10 06:21:05;;;;;;;;;;;16.80;55.60;;;;;;5098422;28;19920;-76
2022/10/10 06:23:31;;;;;;;;;;;16.80;55.50;;;;;;5081842;28;19930;-74
2022/10/10 06:25:57;;;;;;;;;;;17.00;56.30;;;;;;5081221;27;19930;-80
2022/10/10 06:28:22;;;;;;;;;;;17.20;56.50;;;;;;5068728;28;20023;-66
2022/10/10 06:30:49;;;;;;;;;;;17.50;55.90;;;;;;5072460;28;19920;-71
2022/10/10 06:33:17;;;;;;;;;;;17.60;54.60;;;;;;5089559;28;20010;-72
2022/10/10 06:35:46;;;;;;;;;;;17.80;54.40;;;;;;5068919;28;19919;-73
2022/10/10 06:38:12;;;;;;;;;;;17.90;54.00;;;;;;5085331;28;19920;-72
2022/10/10 06:40:38;;;;;;;;;;;17.90;53.90;;;;;;5073731;28;19926;-68
2022/10/10 06:43:05;;;;;;;;;;;18.00;53.80;;;;;;5069450;28;20972;-72
2022/10/10 06:45:34;;;;;;;;;;;18.10;54.30;;;;;;5072827;28;19959;-73
2022/10/10 06:47:59;;;;;;;;;;;18.10;53.70;;;;;;5090493;28;19928;-75
2022/10/10 06:50:25;;;;;;;;;;;18.20;53.70;;;;;;5091662;28;19930;-77
2022/10/10 06:52:51;;;;;;;;;;;18.20;53.70;;;;;;5077039;28;19919;-77
2022/10/10 06:55:16;;;;;;;;;;;18.30;53.80;;;;;;5095621;28;19927;-78
2022/10/10 06:57:42;;;;;;;;;;;18.40;53.80;;;;;;5097249;28;19931;-72
2022/10/10 07:00:08;;;;;;;;;;;18.60;53.00;;;;;;5079661;28;20312;-77
2022/10/10 07:02:33;;;;;;;;;;;18.70;52.90;;;;;;5079452;28;20394;-72
2022/10/10 07:04:59;;;;;;;;;;;18.70;53.00;;;;;;5107333;27;19977;-73
2022/10/10 07:07:24;;;;;;;;;;;18.80;53.20;;;;;;5106561;27;20303;-73
2022/10/10 07:09:50;;;;;;;;;;;18.90;52.40;;;;;;5092947;28;19967;-75
2022/10/10 07:12:16;;;;;;;;;;;18.90;52.40;;;;;;5075885;27;21044;-76
2022/10/10 07:14:41;;;;;;;;;;;18.90;52.90;;;;;;5095514;27;19934;-73
2022/10/10 07:17:07;;;;;;;;;;;18.90;52.80;;;;;;5092914;27;19928;-74
2022/10/10 07:19:34;;;;;;;;;;;18.90;52.80;;;;;;5079709;28;20409;-77
2022/10/10 07:22:00;;;;;;;;;;;18.90;52.70;;;;;;5094254;28;19936;-80
2022/10/10 07:24:25;;;;;;;;;;;18.90;52.70;;;;;;5073955;27;19936;-77
2022/10/10 07:26:53;;;;;;;;;;;18.90;52.80;;;;;;5092412;27;19951;-78
2022/10/10 07:29:19;;;;;;;;;;;18.90;52.80;;;;;;5075544;28;19972;-72
2022/10/10 07:31:44;;;;;;;;;;;18.90;53.00;;;;;;5078621;28;20329;-70
2022/10/10 07:34:10;;;;;;;;;;;18.80;53.10;;;;;;5094961;28;19927;-72
2022/10/10 07:36:36;;;;;;;;;;;18.80;53.20;;;;;;5076354;28;19920;-70
2022/10/10 07:39:02;;;;;;;;;;;18.80;53.30;;;;;;5078350;28;19938;-68
2022/10/10 07:41:27;;;;;;;;;;;18.80;53.50;;;;;;5077189;28;19924;-69
2022/10/10 07:43:54;;;;;;;;;;;18.70;53.70;;;;;;5096894;27;20015;-70
2022/10/10 07:46:20;;;;;;;;;;;18.80;53.80;;;;;;5075658;28;19967;-71
2022/10/10 07:48:47;;;;;;;;;;;18.60;53.80;;;;;;5091322;27;20347;-70
2022/10/10 07:51:13;;;;;;;;;;;18.60;54.00;;;;;;5085094;28;19927;-76
2022/10/10 07:53:40;;;;;;;;;;;18.60;54.20;;;;;;5080422;28;20106;-69
2022/10/10 07:56:07;;;;;;;;;;;18.50;55.10;;;;;;5094183;27;19930;-72
2022/10/10 07:58:33;;;;;;;;;;;18.50;54.20;;;;;;5076934;28;19924;-77
2022/10/10 08:01:13;;;;;;;;;;;18.50;54.40;;;;;;5075832;28;19927;-72
2022/10/10 08:03:39;;;;;;;;;;;18.50;54.50;;;;;;5083599;28;20457;-74
2022/10/10 08:06:07;;;;;;;;;;;18.50;54.80;;;;;;5076658;28;20004;-71
2022/10/10 08:08:33;;;;;;;;;;;18.40;54.70;;;;;;5110004;27;19928;-71
2022/10/10 08:10:58;;;;;;;;;;;18.50;54.70;;;;;;5094489;27;20019;-72
2022/10/10 08:13:24;;;;;;;;;;;18.50;54.70;;;;;;5077099;27;20035;-72
2022/10/10 08:15:50;;;;;;;;;;;18.50;54.90;;;;;;5078050;28;19967;-70
2022/10/10 08:18:16;;;;;;;;;;;18.50;55.00;;;;;;5097454;27;20922;-70
2022/10/10 08:20:42;;;;;;;;;;;18.60;55.10;;;;;;5076567;28;19931;-74
2022/10/10 08:23:07;;;;;;;;;;;18.60;55.20;;;;;;5097995;28;19923;-72
2022/10/10 08:25:33;;;;;;;;;;;18.60;55.20;;;;;;5095413;27;19931;-71
2022/10/10 08:27:58;;;;;;;;;;;18.60;55.30;;;;;;5095527;27;19967;-73
2022/10/10 08:30:24;;;;;;;;;;;18.70;55.10;;;;;;5097408;27;19924;-74
2022/10/10 08:32:49;;;;;;;;;;;18.80;55.20;;;;;;5078870;28;19927;-72
2022/10/10 08:35:15;;;;;;;;;;;18.70;55.20;;;;;;5107826;27;19924;-70
2022/10/10 08:37:41;;;;;;;;;;;18.80;55.10;;;;;;5074495;28;19943;-72
2022/10/10 08:40:06;;;;;;;;;;;18.80;55.10;;;;;;5076894;28;19920;-65
2022/10/10 08:42:35;;;;;;;;;;;18.80;55.10;;;;;;5095392;28;20002;-72
2022/10/10 08:45:03;;;;;;;;;;;18.80;55.10;;;;;;5098190;28;19978;-72
2022/10/10 08:47:35;;;;;;;;;;;18.80;55.20;;;;;;5076835;28;19927;-71
2022/10/10 08:50:04;;;;;;;;;;;18.80;55.20;;;;;;5085601;28;19924;-70
2022/10/10 08:52:37;;;;;;;;;;;18.80;55.20;;;;;;5090948;27;19962;-75
2022/10/10 08:55:06;;;;;;;;;;;18.70;55.30;;;;;;5089588;28;19924;-73
2022/10/10 08:57:37;;;;;;;;;;;18.70;55.40;;;;;;5082675;28;19927;-73
2022/10/10 09:00:05;;;;;;;;;;;18.70;55.20;;;;;;5075772;28;19924;-72
2022/10/10 09:02:34;;;;;;;;;;;18.70;55.20;;;;;;5075940;28;20363;-76
2022/10/10 09:05:00;;;;;;;;;;;18.70;55.30;;;;;;5075075;27;19984;-70
2022/10/10 09:07:33;;;;;;;;;;;18.70;55.40;;;;;;5079545;28;19924;-77
2022/10/10 09:12:46;;;;;;;;;;;18.80;55.70;;;;;;5075009;27;19931;-68
2022/10/10 09:15:16;;;;;;;;;;;18.80;55.80;;;;;;5059894;28;20274;-71
2022/10/10 09:17:45;;;;;;;;;;;18.80;55.90;;;;;;5034196;28;19925;-69
2022/10/10 09:20:31;;;;;;;;;;;18.70;55.80;;;;;;5056084;28;20071;-70
2022/10/10 09:23:02;;;;;;;;;;;18.80;55.80;;;;;;5087320;28;20034;-67
2022/10/10 09:25:34;;;;;;;;;;;18.80;55.80;;;;;;5056447;28;20291;-72
2022/10/10 09:28:05;;;;;;;;;;;18.70;56.40;;;;;;5053746;28;20391;-73
2022/10/10 09:30:32;;;;;;;;;;;18.80;55.80;;;;;;5055305;28;20231;-70
2022/10/10 09:33:02;;;;;;;;;;;18.80;55.90;;;;;;5081082;28;19971;-74
2022/10/10 09:35:29;;;;;;;;;;;18.80;55.90;;;;;;5054536;28;19963;-76
2022/10/10 09:37:59;;;;;;;;;;;18.80;55.90;;;;;;5053195;28;21217;-78
2022/10/10 09:40:30;;;;;;;;;;;18.80;56.10;;;;;;5088165;28;19925;-76
2022/10/10 09:42:55;;;;;;;;;;;18.80;56.30;;;;;;5047329;28;19921;-71
2022/10/10 09:45:40;;;;;;;;;;;18.80;56.30;;;;;;5053589;28;19955;-75
2022/10/10 09:48:08;;;;;;;;;;;18.80;56.50;;;;;;5091065;27;19924;-74
2022/10/10 09:50:33;;;;;;;;;;;18.90;56.40;;;;;;5052147;28;19948;-71
2022/10/10 09:52:59;;;;;;;;;;;18.90;56.40;;;;;;5056147;28;19928;-67
2022/10/10 09:55:27;;;;;;;;;;;18.90;56.50;;;;;;5071715;28;19971;-70
2022/10/10 09:57:54;;;;;;;;;;;18.90;56.60;;;;;;5056530;28;20300;-76
2022/10/10 10:05:56;;;;;;;;;;;18.90;56.60;;;;;;5067117;28;20377;-73
2022/10/10 10:08:24;;;;;;;;;;;18.90;56.70;;;;;;5078200;28;19925;-68
2022/10/10 10:10:50;;;;;;;;;;;18.90;56.70;;;;;;5081508;28;19928;-70
2022/10/10 10:13:21;;;;;;;;;;;18.90;56.70;;;;;;5063108;28;19924;-70
2022/10/10 10:15:49;;;;;;;;;;;18.90;56.80;;;;;;5066972;28;20178;-70
2022/10/10 10:21:13;;;;;;;;;;;18.90;56.80;;;;;;5081805;27;19924;-72
2022/10/10 10:23:43;;;;;;;;;;;18.80;56.90;;;;;;5089319;28;19931;-72
2022/10/10 10:26:17;;;;;;;;;;;18.90;57.10;;;;;;5061263;28;20071;-66
2022/10/10 10:28:43;;;;;;;;;;;18.90;57.20;;;;;;5090067;28;19928;-72
2022/10/10 10:31:19;;;;;;;;;;;18.80;57.30;;;;;;5092095;28;19924;-71
2022/10/10 10:33:53;;;;;;;;;;;18.90;57.30;;;;;;5054889;28;20388;-70
2022/10/10 10:39:33;;;;;;;;;;;18.90;57.20;;;;;;5066247;28;19921;-69
2022/10/10 10:44:50;;;;;;;;;;;18.90;57.50;;;;;;5063565;28;19920;-70
2022/10/10 10:50:22;;;;;;;;;;;18.90;57.70;;;;;;5100920;27;1860389;-71
2022/10/10 10:53:08;;;;;;;;;;;18.90;57.80;;;;;;5152864;27;20026;-70
2022/10/10 10:55:44;;;;;;;;;;;18.90;57.90;;;;;;5133731;27;20316;-70
2022/10/10 10:58:29;;;;;;;;;;;18.90;58.00;;;;;;5134794;27;19930;-73
2022/10/10 11:00:59;;;;;;;;;;;18.90;58.00;;;;;;5135294;27;19935;-73
2022/10/10 11:09:05;;;;;;;;;;;18.90;57.80;;;;;;5077739;27;19920;-72
2022/10/10 11:14:22;;;;;;;;;;;19.00;57.80;;;;;;5053364;27;19936;-68
2022/10/10 11:16:50;;;;;;;;;;;19.00;57.70;;;;;;5047635;28;20027;-76
2022/10/10 11:19:35;;;;;;;;;;;19.00;57.80;;;;;;5041588;28;20435;-82
2022/10/10 11:22:04;;;;;;;;;;;19.10;57.70;;;;;;5041327;28;19936;-81
2022/10/10 11:27:47;;;;;;;;;;;19.10;58.40;;;;;;5066401;27;19928;-74
2022/10/10 11:30:18;;;;;;;;;;;19.10;57.70;;;;;;5106348;28;19947;-73
2022/10/10 11:32:51;;;;;;;;;;;19.10;57.50;;;;;;5072351;28;19924;-79
2022/10/10 11:35:33;;;;;;;;;;;19.10;57.60;;;;;;5105690;28;19947;-75
2022/10/10 11:38:05;;;;;;;;;;;19.20;57.70;;;;;;5073987;28;19931;-71
2022/10/10 11:40:39;;;;;;;;;;;19.10;57.70;;;;;;5103953;28;19924;-71
2022/10/10 11:43:07;;;;;;;;;;;19.20;57.90;;;;;;5072938;28;20929;-76
2022/10/10 11:45:36;;;;;;;;;;;19.20;57.90;;;;;;5072656;28;20658;-73
2022/10/10 11:50:43;;;;;;;;;;;19.20;57.90;;;;;;5074760;27;19925;-71
2022/10/10 11:53:19;;;;;;;;;;;19.20;57.80;;;;;;5070721;28;19935;-76
2022/10/10 11:58:35;;;;;;;;;;;19.20;57.70;;;;;;5081865;27;19951;-74
2022/10/10 12:01:11;;;;;;;;;;;19.20;57.80;;;;;;5054719;28;19928;-74
2022/10/10 12:03:36;;;;;;;;;;;19.20;57.80;;;;;;5094344;28;19932;-71
2022/10/10 12:06:07;;;;;;;;;;;19.20;57.80;;;;;;5063737;28;19925;-72
2022/10/10 12:08:35;;;;;;;;;;;19.20;57.80;;;;;;5066663;28;20396;-72
2022/10/10 12:13:43;;;;;;;;;;;19.20;57.80;;;;;;5068745;27;20453;-73
2022/10/10 12:16:12;;;;;;;;;;;19.20;57.80;;;;;;5075596;28;19970;-75
2022/10/10 12:21:21;;;;;;;;;;;19.20;57.90;;;;;;5077689;27;19924;-76
2022/10/10 12:23:49;;;;;;;;;;;19.20;57.90;;;;;;5077336;28;20038;-75
2022/10/10 12:26:16;;;;;;;;;;;19.20;57.80;;;;;;5075936;28;19971;-70
2022/10/10 12:31:38;;;;;;;;;;;19.30;57.90;;;;;;5054626;28;19947;-77
2022/10/10 12:36:54;;;;;;;;;;;19.30;57.90;;;;;;5078011;27;20376;-79
2022/10/10 12:42:00;;;;;;;;;;;19.30;58.00;;;;;;5070462;28;19927;-74
2022/10/10 12:49:56;;;;;;;;;;;19.20;58.00;;;;;;5074913;27;19928;-77
2022/10/10 12:55:16;;;;;;;;;;;19.30;58.10;;;;;;5056105;27;19925;-76
2022/10/10 12:57:43;;;;;;;;;;;19.30;58.20;;;;;;5051174;28;19921;-79
2022/10/10 13:00:26;;;;;;;;;;;19.30;58.30;;;;;;5050490;28;19933;-77
2022/10/10 13:02:53;;;;;;;;;;;19.30;58.30;;;;;;5100385;28;19970;-76
2022/10/10 13:05:24;;;;;;;;;;;19.30;58.50;;;;;;5067929;28;19929;-70
2022/10/10 13:07:50;;;;;;;;;;;19.40;58.70;;;;;;5067611;28;19936;-71
2022/10/10 13:10:20;;;;;;;;;;;19.30;59.00;;;;;;5072171;28;19928;-70
2022/10/10 13:12:56;;;;;;;;;;;19.40;59.30;;;;;;5092781;28;19974;-71
2022/10/10 13:15:22;;;;;;;;;;;19.40;59.50;;;;;;5057608;28;19927;-71
2022/10/10 13:17:47;;;;;;;;;;;19.40;59.80;;;;;;5063155;28;19920;-64
2022/10/10 13:20:30;;;;;;;;;;;19.40;59.90;;;;;;5061507;28;19921;-71
2022/10/10 13:22:56;;;;;;;;;;;19.40;59.90;;;;;;5054913;28;19938;-71
2022/10/10 13:25:23;;;;;;;;;;;19.40;59.90;;;;;;5065637;28;19921;-73
2022/10/10 13:27:48;;;;;;;;;;;19.40;60.00;;;;;;5064476;28;19925;-65
2022/10/10 13:30:18;;;;;;;;;;;19.40;60.00;;;;;;5078632;28;19921;-73
2022/10/10 13:32:44;;;;;;;;;;;19.30;60.00;;;;;;5062931;28;19921;-73
2022/10/10 13:35:20;;;;;;;;;;;19.30;60.10;;;;;;5063073;28;20008;-72
2022/10/10 13:37:49;;;;;;;;;;;19.30;60.00;;;;;;5062114;28;19959;-76
2022/10/10 13:40:15;;;;;;;;;;;19.30;60.20;;;;;;5061875;28;19921;-75
2022/10/10 13:42:42;;;;;;;;;;;19.40;60.30;;;;;;5063104;28;20589;-70
2022/10/10 13:45:27;;;;;;;;;;;19.40;60.30;;;;;;5080478;28;19920;-72
2022/10/10 13:53:30;;;;;;;;;;;19.40;60.00;;;;;;5121654;27;1876452;-71
2022/10/10 14:04:14;;;;;;;;;;;19.40;60.00;;;;;;5107480;27;19938;-71
2022/10/10 14:06:57;;;;;;;;;;;19.40;60.30;;;;;;5058912;28;20035;-73
2022/10/10 14:12:06;;;;;;;;;;;19.40;60.00;;;;;;5070761;28;19922;-78
2022/10/10 14:14:33;;;;;;;;;;;19.40;60.20;;;;;;5052859;28;20560;-75
2022/10/10 14:17:00;;;;;;;;;;;19.40;60.20;;;;;;5062417;28;19928;-76
2022/10/10 14:19:25;;;;;;;;;;;19.40;60.30;;;;;;5053688;28;19921;-75
2022/10/10 14:21:51;;;;;;;;;;;19.50;60.40;;;;;;5030757;28;19928;-82
2022/10/10 14:24:16;;;;;;;;;;;19.50;60.50;;;;;;5046760;28;19921;-74
2022/10/10 14:26:42;;;;;;;;;;;19.50;60.50;;;;;;5044512;28;20016;-76
2022/10/10 14:29:12;;;;;;;;;;;19.50;60.50;;;;;;5029078;28;20278;-75
2022/10/10 14:31:37;;;;;;;;;;;19.50;60.60;;;;;;5043128;28;19931;-77
2022/10/10 14:34:03;;;;;;;;;;;19.50;60.60;;;;;;5059248;28;19924;-69
2022/10/10 14:36:28;;;;;;;;;;;19.50;60.60;;;;;;5040166;28;19968;-70
2022/10/10 14:38:54;;;;;;;;;;;19.50;60.60;;;;;;5031695;28;19921;-68
2022/10/10 14:41:19;;;;;;;;;;;19.50;60.60;;;;;;5021175;28;20264;-73
2022/10/10 14:43:45;;;;;;;;;;;19.50;60.60;;;;;;5027053;28;20396;-75
2022/10/10 14:46:19;;;;;;;;;;;19.50;60.80;;;;;;5024596;28;19921;-76
2022/10/10 14:48:44;;;;;;;;;;;19.50;60.70;;;;;;5058412;28;19933;-75
2022/10/10 14:51:11;;;;;;;;;;;19.50;60.60;;;;;;5063015;28;19932;-76
2022/10/10 14:53:36;;;;;;;;;;;19.50;60.50;;;;;;5056583;28;20475;-73
2022/10/10 14:56:02;;;;;;;;;;;19.50;60.50;;;;;;5023886;28;19930;-76
2022/10/10 14:58:27;;;;;;;;;;;19.40;60.30;;;;;;5055211;28;19928;-77
2022/10/10 15:00:53;;;;;;;;;;;19.40;60.30;;;;;;5026630;28;19936;-74
2022/10/10 15:03:19;;;;;;;;;;;19.40;60.20;;;;;;5042794;28;19925;-75
2022/10/10 15:05:46;;;;;;;;;;;19.40;60.10;;;;;;5044701;28;19935;-76
2022/10/10 15:08:12;;;;;;;;;;;19.40;60.10;;;;;;5045099;28;20392;-76
2022/10/10 15:10:37;;;;;;;;;;;19.40;60.00;;;;;;5045159;28;19925;-75
2022/10/10 15:13:03;;;;;;;;;;;19.40;59.90;;;;;;5046605;28;19921;-76
2022/10/10 15:15:28;;;;;;;;;;;19.50;59.90;;;;;;5045901;28;19921;-76
2022/10/10 15:17:55;;;;;;;;;;;19.50;59.80;;;;;;5063286;28;20411;-77
2022/10/10 15:20:24;;;;;;;;;;;19.50;59.70;;;;;;5064857;28;20318;-77
2022/10/10 15:22:50;;;;;;;;;;;19.50;59.70;;;;;;5056805;28;20339;-76
2022/10/10 15:25:15;;;;;;;;;;;19.50;59.60;;;;;;5052700;28;19940;-77
2022/10/10 15:27:41;;;;;;;;;;;19.50;59.50;;;;;;5052836;28;19921;-76
2022/10/10 15:30:06;;;;;;;;;;;19.50;59.40;;;;;;5053646;28;19970;-75
2022/10/10 15:32:32;;;;;;;;;;;19.50;59.40;;;;;;5053472;28;20007;-75
2022/10/10 15:34:58;;;;;;;;;;;19.50;59.30;;;;;;5054965;28;19921;-73
2022/10/10 15:37:24;;;;;;;;;;;19.50;59.30;;;;;;5053874;28;20011;-76
2022/10/10 15:39:50;;;;;;;;;;;19.50;59.30;;;;;;5053319;28;19925;-76
2022/10/10 15:42:15;;;;;;;;;;;19.50;59.10;;;;;;5053447;28;19974;-77
2022/10/10 15:44:43;;;;;;;;;;;19.50;59.10;;;;;;5053281;28;19928;-76
2022/10/10 15:47:08;;;;;;;;;;;19.50;59.10;;;;;;5053591;28;20234;-76
2022/10/10 15:49:37;;;;;;;;;;;19.60;59.10;;;;;;5053178;28;19948;-77